Time;durP1;ratioP1;P1;durP2;ratioP2;P2;SDS_P1;SDS_P2;PMS_P1;PMS_P2;Temp;Humidity;BMP_temperature;BMP_pressure;BME280_temperature;BME280_humidity;BME280_pressure;Samples;Min_cycle;Max_cycle;Signal;HPM_P1;HPM_P2
2022/04/21 00:00:42;;;;;;;6.70;2.13;;;6.70;99.90;;;;;;4990286;28;20019;-63
2022/04/21 00:03:08;;;;;;;4.25;1.73;;;6.70;99.90;;;;;;4985697;28;20030;-63
2022/04/21 00:05:34;;;;;;;5.80;2.03;;;6.60;99.90;;;;;;4986117;28;20038;-63
2022/04/21 00:08:00;;;;;;;4.88;1.90;;;6.50;99.90;;;;;;4990808;28;20034;-63
2022/04/21 00:10:27;;;;;;;6.15;2.30;;;6.50;99.90;;;;;;4987777;28;20038;-63
2022/04/21 00:12:54;;;;;;;5.32;2.10;;;6.50;99.90;;;;;;4986378;28;20022;-63
2022/04/21 00:15:21;;;;;;;5.95;2.03;;;6.50;99.90;;;;;;4990884;28;20117;-63
2022/04/21 00:17:46;;;;;;;10.63;2.22;;;6.50;99.90;;;;;;4986384;28;20061;-63
2022/04/21 00:20:12;;;;;;;5.47;2.28;;;6.40;99.90;;;;;;4989769;28;20079;-63
2022/04/21 00:25:22;;;;;;;6.22;2.33;;;6.10;99.90;;;;;;4987204;28;20564;-63
2022/04/21 00:27:48;;;;;;;5.40;2.08;;;6.00;99.90;;;;;;4990085;28;20034;-63
2022/04/21 00:30:16;;;;;;;6.25;2.00;;;6.00;99.90;;;;;;4990993;28;20052;-63
2022/04/21 00:32:42;;;;;;;5.65;2.55;;;6.10;99.90;;;;;;4991591;28;20038;-63
2022/04/21 00:35:13;;;;;;;6.40;2.55;;;6.00;99.90;;;;;;4986889;28;20101;-63
2022/04/21 00:37:49;;;;;;;8.50;2.35;;;5.90;99.90;;;;;;4987904;28;20394;-63
2022/04/21 00:40:17;;;;;;;6.18;2.25;;;5.90;99.90;;;;;;4987199;28;20019;-63
2022/04/21 00:42:43;;;;;;;4.88;1.85;;;5.90;99.90;;;;;;4989457;28;20423;-63
2022/04/21 00:45:10;;;;;;;8.02;2.78;;;5.80;99.90;;;;;;4991579;28;20109;-63
2022/04/21 00:47:40;;;;;;;7.57;2.60;;;5.80;99.90;;;;;;4986271;28;20030;-63
2022/04/21 00:50:09;;;;;;;6.38;2.20;;;5.80;99.90;;;;;;4989155;28;20014;-63
2022/04/21 00:52:35;;;;;;;5.75;2.20;;;5.80;99.90;;;;;;4989882;28;20026;-63
2022/04/21 00:55:01;;;;;;;7.63;2.60;;;5.80;99.90;;;;;;4986591;28;20037;-63
2022/04/21 00:57:27;;;;;;;5.60;2.33;;;5.80;99.90;;;;;;4984923;28;20073;-63
2022/04/21 00:59:53;;;;;;;7.47;2.10;;;5.70;99.90;;;;;;4987855;28;20034;-63
2022/04/21 01:05:04;;;;;;;6.72;2.45;;;5.60;99.90;;;;;;4987812;28;20092;-63
2022/04/21 01:07:30;;;;;;;6.03;2.35;;;5.70;99.90;;;;;;4986378;28;20034;-63
2022/04/21 01:09:55;;;;;;;6.95;2.35;;;5.60;99.90;;;;;;4986920;28;20030;-63
2022/04/21 01:12:23;;;;;;;6.55;2.42;;;5.50;99.90;;;;;;4986197;28;20065;-63
2022/04/21 01:14:49;;;;;;;16.23;2.55;;;5.40;99.90;;;;;;4983454;28;20045;-63
2022/04/21 01:17:14;;;;;;;8.05;2.88;;;5.30;99.90;;;;;;4985008;28;20030;-63
2022/04/21 01:19:40;;;;;;;6.78;2.50;;;5.20;99.90;;;;;;4985880;28;20072;-64
2022/04/21 01:22:05;;;;;;;5.28;1.88;;;5.30;99.90;;;;;;4985134;28;20054;-63
2022/04/21 01:24:31;;;;;;;8.23;2.70;;;5.10;99.90;;;;;;4985593;28;20026;-63
2022/04/21 01:26:58;;;;;;;7.95;2.42;;;5.10;99.90;;;;;;4983552;28;20041;-63
2022/04/21 01:29:24;;;;;;;5.88;1.98;;;5.40;99.90;;;;;;4988157;28;20126;-63
2022/04/21 01:31:50;;;;;;;6.53;2.72;;;5.80;99.90;;;;;;4988087;28;20164;-63
2022/04/21 01:34:16;;;;;;;14.05;3.40;;;5.90;99.90;;;;;;4986015;28;20465;-63
2022/04/21 01:42:14;;;;;;;5.90;2.30;;;5.90;99.90;;;;;;4988104;28;20049;-63
2022/04/21 01:44:41;;;;;;;6.32;2.47;;;5.90;99.90;;;;;;4988049;28;20018;-63
2022/04/21 01:47:06;;;;;;;6.65;2.33;;;5.80;99.90;;;;;;4988081;28;20038;-63
2022/04/21 01:49:32;;;;;;;9.20;2.75;;;5.70;99.90;;;;;;4987558;28;20489;-63
2022/04/21 01:51:57;;;;;;;13.68;3.15;;;5.60;99.90;;;;;;4985564;28;20077;-63
2022/04/21 01:54:23;;;;;;;7.53;2.58;;;5.50;99.90;;;;;;4985291;28;20030;-63
2022/04/21 01:56:49;;;;;;;9.38;3.45;;;5.40;99.90;;;;;;4985165;28;20032;-63
2022/04/21 01:59:14;;;;;;;6.75;2.38;;;5.50;99.90;;;;;;4985975;28;20062;-63
2022/04/21 02:01:40;;;;;;;6.20;2.78;;;5.40;99.90;;;;;;4985622;28;20037;-63
2022/04/21 02:04:05;;;;;;;7.80;2.65;;;5.20;99.90;;;;;;4987370;28;20023;-63
2022/04/21 02:06:31;;;;;;;7.60;3.10;;;5.10;99.90;;;;;;4986355;28;20042;-63
2022/04/21 02:08:58;;;;;;;7.28;2.55;;;5.20;99.90;;;;;;4984495;28;20026;-63
2022/04/21 02:11:23;;;;;;;8.02;2.92;;;5.20;99.90;;;;;;4986966;28;20172;-63
2022/04/21 02:13:49;;;;;;;6.10;2.17;;;5.10;99.90;;;;;;4987445;28;20464;-63
2022/04/21 02:16:15;;;;;;;7.25;2.58;;;5.00;99.90;;;;;;5001966;28;20466;-63
2022/04/21 02:18:40;;;;;;;7.90;2.50;;;5.00;99.90;;;;;;5002427;28;20026;-63
2022/04/21 02:21:06;;;;;;;6.95;2.42;;;5.00;99.90;;;;;;4986591;28;20030;-63
2022/04/21 02:23:31;;;;;;;6.38;2.58;;;4.90;99.90;;;;;;4987150;28;20517;-63
2022/04/21 02:25:57;;;;;;;6.50;2.50;;;4.90;99.90;;;;;;4985503;28;20081;-63
2022/04/21 02:28:23;;;;;;;7.47;2.38;;;4.90;99.90;;;;;;4985803;28;20102;-63
2022/04/21 02:30:48;;;;;;;6.50;2.10;;;4.80;99.90;;;;;;4987028;28;20042;-63
2022/04/21 02:33:14;;;;;;;6.00;2.35;;;4.70;99.90;;;;;;4987018;28;20077;-63
2022/04/21 02:35:40;;;;;;;5.15;2.20;;;4.70;99.90;;;;;;4987499;28;20034;-63
2022/04/21 02:38:05;;;;;;;6.57;2.47;;;4.70;99.90;;;;;;4982747;28;20019;-63
2022/04/21 02:40:31;;;;;;;5.50;2.25;;;4.60;99.90;;;;;;4982446;28;20281;-63
2022/04/21 02:42:56;;;;;;;4.82;2.08;;;4.60;99.90;;;;;;4988243;28;20037;-63
2022/04/21 02:45:22;;;;;;;8.23;2.72;;;4.60;99.90;;;;;;4988466;28;20033;-63
2022/04/21 02:47:49;;;;;;;5.47;2.58;;;4.50;99.90;;;;;;4982659;28;20030;-63
2022/04/21 02:50:17;;;;;;;8.25;2.70;;;4.50;99.90;;;;;;4987404;28;20034;-63
2022/04/21 02:52:44;;;;;;;6.25;3.03;;;4.50;99.90;;;;;;4989968;28;20037;-63
2022/04/21 02:57:56;;;;;;;6.07;2.28;;;4.50;99.90;;;;;;4983772;28;20117;-63
2022/04/21 03:00:22;;;;;;;4.97;2.10;;;4.30;99.90;;;;;;4982039;28;20077;-63
2022/04/21 03:02:47;;;;;;;6.22;2.03;;;4.30;99.90;;;;;;4986043;28;20030;-63
2022/04/21 03:05:13;;;;;;;6.45;2.25;;;4.40;99.90;;;;;;4981796;28;20023;-63
2022/04/21 03:07:39;;;;;;;8.68;3.00;;;4.80;99.90;;;;;;4989374;28;20499;-63
2022/04/21 03:10:05;;;;;;;5.95;2.55;;;4.80;99.90;;;;;;4981995;28;20014;-63
2022/04/21 03:12:30;;;;;;;5.97;2.47;;;5.10;99.90;;;;;;4988352;28;20053;-63
2022/04/21 03:14:57;;;;;;;6.03;2.80;;;5.00;99.90;;;;;;5006606;28;20105;-63
2022/04/21 03:17:23;;;;;;;7.60;2.63;;;4.90;99.90;;;;;;4990694;28;20363;-62
2022/04/21 03:19:49;;;;;;;7.18;2.88;;;4.70;99.90;;;;;;4992534;28;20487;-62
2022/04/21 03:25:00;;;;;;;6.05;3.03;;;4.40;99.90;;;;;;4992256;28;20061;-62
2022/04/21 03:27:29;;;;;;;19.40;3.40;;;4.30;99.90;;;;;;4988944;28;20220;-62
2022/04/21 03:29:58;;;;;;;5.32;2.50;;;4.20;99.90;;;;;;4992011;28;20092;-62
2022/04/21 03:32:23;;;;;;;7.55;2.60;;;4.10;99.90;;;;;;4991644;28;20034;-63
2022/04/21 03:34:49;;;;;;;6.25;2.15;;;4.00;99.90;;;;;;4992331;28;20018;-62
2022/04/21 03:37:15;;;;;;;6.60;2.13;;;3.90;99.90;;;;;;4991005;28;20312;-63
2022/04/21 03:39:42;;;;;;;5.22;2.33;;;3.90;99.90;;;;;;4991544;28;20030;-62
2022/04/21 03:42:18;;;;;;;8.45;2.47;;;3.80;99.90;;;;;;4991093;28;20379;-62
2022/04/21 03:44:44;;;;;;;8.75;3.17;;;3.90;99.90;;;;;;4990124;28;20022;-63
2022/04/21 03:47:09;;;;;;;5.80;2.60;;;3.70;99.90;;;;;;4990248;28;20079;-62
2022/04/21 03:49:35;;;;;;;5.15;2.13;;;3.60;99.90;;;;;;4988059;28;20023;-62
2022/04/21 03:52:00;;;;;;;8.43;2.70;;;3.50;99.90;;;;;;4983274;28;20296;-62
2022/04/21 03:54:26;;;;;;;6.22;2.63;;;3.60;99.90;;;;;;4990026;28;20026;-62
2022/04/21 03:56:53;;;;;;;7.25;3.05;;;3.60;99.90;;;;;;4985572;28;20081;-62
2022/04/21 03:59:20;;;;;;;7.25;2.70;;;3.60;99.90;;;;;;4984904;28;20023;-62
2022/04/21 04:01:46;;;;;;;6.20;2.53;;;3.50;99.90;;;;;;4987121;28;20506;-62
2022/04/21 04:04:12;;;;;;;9.07;3.05;;;3.50;99.90;;;;;;4986165;28;20034;-62
2022/04/21 04:12:08;;;;;;;7.82;3.03;;;3.50;99.90;;;;;;4979880;28;20033;-62
2022/04/21 04:14:34;;;;;;;9.52;3.17;;;3.60;99.90;;;;;;4986313;28;20030;-62
2022/04/21 04:17:00;;;;;;;5.15;1.92;;;3.50;99.90;;;;;;4990116;28;20399;-62
2022/04/21 04:19:26;;;;;;;7.70;2.58;;;3.50;99.90;;;;;;4988434;28;20030;-62
2022/04/21 04:21:51;;;;;;;4.53;1.83;;;3.60;99.90;;;;;;4990010;28;20528;-62
2022/04/21 04:24:17;;;;;;;6.82;2.92;;;3.60;99.90;;;;;;4988444;28;20037;-62
2022/04/21 04:26:43;;;;;;;8.65;2.83;;;3.70;99.90;;;;;;4989229;28;20026;-62
2022/04/21 04:29:09;;;;;;;8.23;2.88;;;3.60;99.90;;;;;;4986336;28;20092;-63
2022/04/21 04:31:36;;;;;;;6.40;2.00;;;3.60;99.90;;;;;;4986164;28;20042;-63
2022/04/21 04:34:02;;;;;;;11.30;3.13;;;3.50;99.90;;;;;;4988670;28;20036;-63
2022/04/21 04:36:28;;;;;;;5.93;2.25;;;3.70;99.90;;;;;;4988746;28;20169;-63
2022/04/21 04:38:54;;;;;;;6.03;2.50;;;3.70;99.90;;;;;;4987702;28;20056;-63
2022/04/21 04:44:04;;;;;;;6.68;2.70;;;3.70;99.90;;;;;;4988113;28;20038;-63
2022/04/21 04:46:35;;;;;;;6.15;2.63;;;3.80;99.90;;;;;;4984414;28;20031;-63
2022/04/21 04:49:06;;;;;;;8.90;3.15;;;3.80;99.90;;;;;;5004778;28;20030;-63
2022/04/21 04:51:34;;;;;;;6.00;2.10;;;3.90;99.90;;;;;;4987537;28;20029;-63
2022/04/21 04:54:00;;;;;;;12.07;3.47;;;3.70;99.90;;;;;;4988508;28;20033;-63
2022/04/21 04:56:29;;;;;;;7.85;2.67;;;3.60;99.90;;;;;;4984853;28;20041;-63
2022/04/21 04:58:56;;;;;;;6.07;2.60;;;3.60;99.90;;;;;;4983415;28;20030;-63
2022/04/21 05:01:51;;;;;;;5.50;2.30;;;3.60;99.90;;;;;;4987889;28;20042;-62
2022/04/21 05:04:18;;;;;;;5.50;2.17;;;3.60;99.90;;;;;;4986244;28;20030;-62
2022/04/21 05:06:46;;;;;;;7.75;2.88;;;3.70;99.90;;;;;;4989256;28;20034;-62
2022/04/21 05:09:13;;;;;;;10.00;2.95;;;3.60;99.90;;;;;;4988482;28;20034;-62
2022/04/21 05:11:41;;;;;;;10.43;3.50;;;3.70;99.90;;;;;;4983618;28;20049;-62
2022/04/21 05:14:08;;;;;;;6.15;2.65;;;3.90;99.90;;;;;;4985976;28;20510;-62
2022/04/21 05:16:39;;;;;;;8.25;2.92;;;4.60;99.90;;;;;;4986618;28;20072;-62
2022/04/21 05:19:07;;;;;;;8.15;2.78;;;4.60;99.90;;;;;;5002593;28;20112;-62
2022/04/21 05:21:34;;;;;;;7.78;3.08;;;4.70;99.90;;;;;;4988293;28;20023;-62
2022/04/21 05:24:00;;;;;;;8.98;3.58;;;4.60;99.90;;;;;;4985425;28;20027;-62
2022/04/21 05:26:28;;;;;;;10.80;3.53;;;4.60;99.90;;;;;;4989260;28;20030;-63
2022/04/21 05:28:55;;;;;;;7.63;3.50;;;4.60;99.90;;;;;;4986965;28;20034;-63
2022/04/21 05:31:22;;;;;;;6.95;2.90;;;4.60;99.90;;;;;;4988991;28;20061;-63
2022/04/21 05:33:48;;;;;;;9.07;3.47;;;4.70;99.90;;;;;;4989025;28;20050;-63
2022/04/21 05:36:14;;;;;;;6.30;2.70;;;4.90;99.90;;;;;;4989451;28;20034;-63
2022/04/21 05:38:40;;;;;;;10.98;3.95;;;5.00;99.90;;;;;;4987127;28;20130;-63
2022/04/21 05:41:06;;;;;;;9.55;3.83;;;5.20;99.90;;;;;;4989585;28;20023;-63
2022/04/21 05:43:42;;;;;;;6.93;3.15;;;5.40;99.90;;;;;;4988505;28;20054;-63
2022/04/21 05:46:08;;;;;;;7.47;2.83;;;5.40;99.90;;;;;;4988911;28;20033;-63
2022/04/21 05:48:38;;;;;;;5.72;2.30;;;5.40;99.90;;;;;;4988468;28;20524;-63
2022/04/21 05:51:04;;;;;;;8.38;3.33;;;5.50;99.90;;;;;;4989016;28;20041;-63
2022/04/21 05:53:37;;;;;;;12.40;3.20;;;5.60;99.90;;;;;;4989163;28;20031;-63
2022/04/21 05:56:04;;;;;;;10.45;3.67;;;5.60;99.90;;;;;;5004018;28;20018;-63
2022/04/21 05:58:30;;;;;;;10.60;3.80;;;5.70;99.90;;;;;;4987118;28;20018;-63
2022/04/21 06:00:57;;;;;;;7.32;2.92;;;6.00;99.90;;;;;;4989832;28;20031;-63
2022/04/21 06:03:22;;;;;;;8.27;4.03;;;6.10;99.90;;;;;;4988573;28;20027;-63
2022/04/21 06:05:48;;;;;;;9.25;3.80;;;6.20;99.90;;;;;;4989067;28;20056;-64
2022/04/21 06:08:14;;;;;;;8.38;3.33;;;6.30;99.90;;;;;;4988252;28;20088;-63
2022/04/21 06:10:40;;;;;;;8.68;3.75;;;6.40;99.90;;;;;;4988049;28;20027;-63
2022/04/21 06:13:05;;;;;;;9.85;3.85;;;6.50;99.90;;;;;;4985613;28;20473;-63
2022/04/21 06:15:32;;;;;;;8.25;3.28;;;6.60;99.90;;;;;;4986339;28;20030;-63
2022/04/21 06:17:58;;;;;;;8.73;3.35;;;6.80;99.90;;;;;;4987306;28;20042;-63
2022/04/21 06:20:28;;;;;;;9.27;4.00;;;7.00;99.90;;;;;;4985739;28;20010;-63
2022/04/21 06:22:54;;;;;;;9.50;3.80;;;7.30;99.90;;;;;;5002357;28;20106;-63
2022/04/21 06:25:21;;;;;;;10.90;3.42;;;7.60;99.90;;;;;;4993881;28;20030;-63
2022/04/21 06:27:47;;;;;;;9.07;3.45;;;7.70;99.90;;;;;;4988298;28;20018;-63
2022/04/21 06:30:13;;;;;;;7.53;3.10;;;7.70;99.90;;;;;;4980992;28;20057;-63
2022/04/21 06:32:39;;;;;;;6.00;2.55;;;7.80;99.90;;;;;;4982802;28;20030;-63
2022/04/21 06:35:05;;;;;;;6.97;2.83;;;8.00;99.90;;;;;;4979847;28;20034;-63
2022/04/21 06:37:30;;;;;;;7.18;3.30;;;8.10;99.90;;;;;;4988384;28;20030;-63
2022/04/21 06:39:56;;;;;;;5.72;2.35;;;8.20;99.90;;;;;;4988023;28;20042;-63
2022/04/21 06:42:22;;;;;;;9.40;3.72;;;8.30;99.90;;;;;;4981762;28;20038;-63
2022/04/21 06:50:15;;;;;;;6.72;2.78;;;8.70;99.90;;;;;;4980267;28;20058;-62
2022/04/21 06:52:41;;;;;;;8.82;3.58;;;8.90;99.90;;;;;;4985610;28;20038;-62
2022/04/21 06:55:07;;;;;;;8.95;3.53;;;8.90;99.90;;;;;;4982126;28;20030;-62
2022/04/21 06:57:33;;;;;;;7.38;2.60;;;9.10;99.90;;;;;;4980831;28;20782;-62
2022/04/21 06:59:58;;;;;;;8.70;3.40;;;9.20;99.90;;;;;;4979347;28;20497;-62
2022/04/21 07:02:28;;;;;;;7.18;2.95;;;9.20;99.90;;;;;;4981475;28;20081;-62
2022/04/21 07:04:53;;;;;;;7.35;2.75;;;9.40;99.90;;;;;;4978161;28;20024;-62
2022/04/21 07:07:19;;;;;;;10.30;3.33;;;9.40;99.90;;;;;;4983254;28;20030;-63
2022/04/21 07:09:45;;;;;;;7.00;2.42;;;9.50;99.90;;;;;;4988767;28;20057;-62
2022/04/21 07:12:11;;;;;;;8.52;2.67;;;9.60;99.90;;;;;;4990980;28;20072;-62
2022/04/21 07:14:36;;;;;;;8.80;3.42;;;9.70;99.90;;;;;;4990698;28;20033;-62
2022/04/21 07:17:03;;;;;;;7.22;2.83;;;9.70;99.90;;;;;;4992763;28;20026;-62
2022/04/21 07:19:28;;;;;;;9.05;3.05;;;9.70;99.90;;;;;;4992656;28;20041;-62
2022/04/21 07:21:54;;;;;;;7.63;2.40;;;9.80;99.90;;;;;;4992952;28;20034;-62
2022/04/21 07:24:19;;;;;;;6.60;2.30;;;9.90;99.90;;;;;;4991531;28;20026;-62
2022/04/21 07:26:45;;;;;;;6.93;2.75;;;10.00;99.90;;;;;;4990010;28;20077;-63
2022/04/21 07:29:10;;;;;;;13.98;3.10;;;10.20;99.90;;;;;;4991944;28;20038;-62
2022/04/21 07:31:37;;;;;;;7.18;2.75;;;10.20;99.90;;;;;;4991932;28;20057;-62
2022/04/21 07:34:03;;;;;;;6.38;2.53;;;10.30;99.90;;;;;;4991292;28;20394;-62
2022/04/21 07:36:28;;;;;;;7.95;3.13;;;10.40;99.90;;;;;;4992472;28;20034;-62
2022/04/21 07:38:54;;;;;;;7.65;3.38;;;10.50;99.90;;;;;;4992855;28;20018;-62
2022/04/21 07:41:20;;;;;;;9.27;3.50;;;10.60;99.90;;;;;;4992622;28;20034;-62
2022/04/21 07:43:45;;;;;;;6.88;3.00;;;10.50;99.90;;;;;;4992299;28;20032;-62
2022/04/21 07:46:11;;;;;;;6.97;2.63;;;10.60;99.90;;;;;;4992540;28;20034;-62
2022/04/21 07:51:21;;;;;;;6.88;2.72;;;10.80;99.90;;;;;;4991863;28;20045;-62
2022/04/21 07:53:47;;;;;;;11.25;2.80;;;10.70;99.90;;;;;;4992806;28;20038;-62
2022/04/21 07:56:12;;;;;;;7.75;2.92;;;10.90;99.90;;;;;;4992905;28;20394;-63
2022/04/21 07:58:38;;;;;;;7.53;2.70;;;11.00;99.90;;;;;;4990265;28;20034;-62
2022/04/21 08:01:03;;;;;;;10.45;3.47;;;11.30;99.90;;;;;;4993782;28;20034;-62
2022/04/21 08:03:35;;;;;;;8.82;2.60;;;11.40;99.90;;;;;;4991892;28;20045;-62
2022/04/21 08:06:01;;;;;;;9.10;2.97;;;11.40;99.90;;;;;;4992229;28;20045;-62
2022/04/21 08:08:27;;;;;;;6.25;2.67;;;11.50;99.90;;;;;;4990893;28;20026;-62
2022/04/21 08:10:52;;;;;;;5.70;2.17;;;11.50;99.90;;;;;;4992673;28;20033;-62
2022/04/21 08:13:18;;;;;;;7.10;2.40;;;11.60;99.90;;;;;;4993788;28;20074;-62
2022/04/21 08:15:43;;;;;;;7.95;2.45;;;11.60;99.90;;;;;;4991388;28;20022;-62
2022/04/21 08:18:09;;;;;;;6.80;2.00;;;11.80;99.90;;;;;;4990911;28;20037;-62
2022/04/21 08:20:35;;;;;;;6.47;2.30;;;12.40;99.90;;;;;;4991694;28;20083;-61
2022/04/21 08:23:02;;;;;;;6.63;2.75;;;12.80;99.90;;;;;;4991982;28;20443;-62
2022/04/21 08:33:42;;;;;;;6.57;2.60;;;11.50;99.90;;;;;;4988122;28;20409;-62
2022/04/21 08:36:07;;;;;;;8.52;2.50;;;11.70;99.90;;;;;;5011656;28;20031;-62
2022/04/21 08:38:34;;;;;;;6.50;2.10;;;12.10;99.90;;;;;;4983704;28;20466;-62
2022/04/21 08:41:05;;;;;;;8.15;2.17;;;12.40;99.90;;;;;;4987302;28;20039;-62
2022/04/21 08:43:33;;;;;;;4.22;1.63;;;12.40;99.90;;;;;;4990218;28;20077;-63
2022/04/21 08:46:01;;;;;;;6.50;2.53;;;13.10;99.90;;;;;;4987191;28;20085;-65
2022/04/21 08:48:27;;;;;;;7.25;2.42;;;13.00;99.90;;;;;;4989940;28;20065;-62
2022/04/21 08:50:52;;;;;;;9.75;2.75;;;13.50;99.90;;;;;;4989194;28;20066;-62
2022/04/21 08:53:20;;;;;;;5.72;2.05;;;13.60;99.90;;;;;;4991664;28;20026;-62
2022/04/21 08:55:47;;;;;;;8.75;2.33;;;13.40;99.90;;;;;;4989699;28;20042;-62
2022/04/21 08:58:13;;;;;;;5.68;2.15;;;14.00;99.50;;;;;;4989146;28;20034;-62
2022/04/21 09:00:41;;;;;;;6.00;2.30;;;13.10;99.90;;;;;;4990052;28;20098;-62
2022/04/21 09:03:08;;;;;;;6.97;2.22;;;12.90;99.90;;;;;;4991240;28;20027;-61
2022/04/21 09:05:34;;;;;;;8.02;2.20;;;12.60;99.90;;;;;;4980278;28;20470;-61
2022/04/21 09:08:00;;;;;;;7.38;2.60;;;12.60;99.90;;;;;;4985288;28;20038;-61
2022/04/21 09:10:31;;;;;;;6.75;1.98;;;11.90;99.90;;;;;;4984953;28;20042;-63
2022/04/21 09:12:59;;;;;;;5.28;1.98;;;12.40;99.90;;;;;;4987338;28;20489;-64
2022/04/21 09:15:30;;;;;;;8.20;2.70;;;12.90;99.90;;;;;;4988885;28;20057;-62
2022/04/21 09:18:06;;;;;;;6.28;1.92;;;12.40;99.90;;;;;;4984540;28;20010;-63
2022/04/21 09:20:35;;;;;;;7.43;2.05;;;12.40;99.90;;;;;;4985283;28;20027;-61
2022/04/21 09:23:04;;;;;;;8.80;2.20;;;12.80;99.90;;;;;;4986699;28;20573;-62
2022/04/21 09:25:32;;;;;;;5.95;1.88;;;13.20;99.90;;;;;;4980301;28;20042;-62
2022/04/21 09:27:59;;;;;;;6.75;2.05;;;13.80;99.20;;;;;;4979005;28;20045;-61
2022/04/21 09:30:25;;;;;;;5.93;2.15;;;13.70;98.60;;;;;;4979055;28;20030;-61
2022/04/21 09:32:52;;;;;;;7.25;2.58;;;13.20;99.70;;;;;;4982338;28;20030;-61
2022/04/21 09:35:18;;;;;;;10.65;2.20;;;13.60;99.20;;;;;;4979217;28;20061;-61
2022/04/21 09:37:48;;;;;;;5.10;1.90;;;13.90;98.60;;;;;;4985257;28;20494;-62
2022/04/21 09:40:32;;;;;;;5.80;2.08;;;14.50;97.00;;;;;;4984234;28;20058;-62
2022/04/21 09:43:00;;;;;;;7.35;2.22;;;14.00;97.80;;;;;;4981933;28;20029;-62
2022/04/21 09:48:20;;;;;;;5.28;1.67;;;14.80;97.90;;;;;;4987448;28;20096;-64
2022/04/21 09:50:51;;;;;;;6.78;2.13;;;15.30;96.40;;;;;;4989331;28;20379;-62
2022/04/21 09:53:19;;;;;;;;;;;14.60;96.20;;;;;;4982896;28;20474;-62
2022/04/21 09:55:46;;;;;;;5.63;2.17;;;14.00;97.40;;;;;;4989691;28;19924;-62
2022/04/21 09:58:12;;;;;;;6.38;2.30;;;14.70;97.20;;;;;;4988554;28;20050;-62
2022/04/21 10:00:39;;;;;;;7.45;2.50;;;14.50;97.40;;;;;;4987488;28;20026;-62
2022/04/21 10:03:06;;;;;;;6.82;2.20;;;14.90;97.20;;;;;;4990741;28;20034;-63
2022/04/21 10:05:34;;;;;;;7.60;1.90;;;14.50;97.50;;;;;;4990740;28;20022;-62
2022/04/21 10:08:02;;;;;;;6.38;1.92;;;15.30;96.00;;;;;;4986999;28;20045;-62
2022/04/21 10:10:32;;;;;;;5.32;1.88;;;15.40;95.50;;;;;;4989944;28;20061;-63
2022/04/21 10:12:59;;;;;;;;;;;14.20;97.00;;;;;;4986990;28;20482;-62
2022/04/21 10:15:27;;;;;;;7.63;2.80;;;14.90;96.20;;;;;;4986903;28;19910;-62
2022/04/21 10:17:53;;;;;;;5.03;1.95;;;14.00;98.00;;;;;;4983620;28;20109;-62
2022/04/21 10:20:28;;;;;;;9.10;3.03;;;14.60;96.40;;;;;;4985719;28;20034;-62
2022/04/21 10:22:56;;;;;;;7.28;2.28;;;13.90;98.40;;;;;;4985990;28;20080;-62
2022/04/21 10:25:43;;;;;;;7.05;2.45;;;14.10;98.60;;;;;;4987531;28;20100;-62
2022/04/21 10:28:34;;;;;;;7.78;2.95;;;14.80;97.40;;;;;;4987106;28;20019;-62
2022/04/21 10:31:30;;;;;;;8.45;3.28;;;14.80;97.10;;;;;;4985282;28;20514;-62
2022/04/21 10:34:01;;;;;;;7.35;2.65;;;15.10;96.40;;;;;;4984116;28;20027;-62
2022/04/21 10:36:36;;;;;;;7.55;2.30;;;16.10;95.40;;;;;;4986676;28;20057;-63
2022/04/21 10:39:17;;;;;;;7.35;2.63;;;16.20;94.90;;;;;;4980936;28;20038;-62
2022/04/21 10:41:44;;;;;;;8.98;2.20;;;16.20;94.70;;;;;;4984988;28;20026;-62
2022/04/21 10:44:25;;;;;;;7.82;2.47;;;16.00;94.60;;;;;;4983479;28;20026;-63
2022/04/21 10:47:26;;;;;;;7.32;2.75;;;15.80;94.50;;;;;;4986491;28;20026;-63
2022/04/21 10:49:58;;;;;;;7.70;2.17;;;15.80;94.30;;;;;;4987281;28;20050;-63
2022/04/21 10:58:33;;;;;;;5.97;1.90;;;17.20;93.30;;;;;;4984918;28;20077;-63
2022/04/21 11:01:12;;;;;;;6.60;2.25;;;18.50;92.10;;;;;;4982107;28;20030;-63
2022/04/21 11:03:39;;;;;;;6.18;1.63;;;18.90;91.10;;;;;;4986040;28;20025;-63
2022/04/21 11:06:12;;;;;;;6.80;2.38;;;19.70;90.00;;;;;;4986668;28;20022;-63
2022/04/21 11:08:38;;;;;;;7.15;2.33;;;18.00;90.00;;;;;;4986985;28;20086;-63
2022/04/21 11:11:05;;;;;;;6.68;2.42;;;17.30;90.90;;;;;;4990649;28;20116;-63
2022/04/21 11:13:49;;;;;;;7.25;2.22;;;16.80;92.20;;;;;;4990885;28;20030;-63
2022/04/21 11:16:47;;;;;;;7.55;2.38;;;17.90;90.70;;;;;;4988910;28;20058;-62
2022/04/21 11:19:34;;;;;;;6.45;2.30;;;16.10;92.10;;;;;;4990082;28;20021;-62
2022/04/21 11:22:05;;;;;;;7.22;2.85;;;16.40;91.80;;;;;;4987463;28;20113;-62
2022/04/21 11:24:55;;;;;;;6.10;2.25;;;16.40;92.30;;;;;;4987659;28;20023;-62
2022/04/21 11:27:24;;;;;;;;;;;15.30;93.60;;;;;;4982530;28;20479;-63
2022/04/21 11:29:50;;;;;;;6.10;2.40;;;14.90;93.40;;;;;;4986754;28;19917;-62
2022/04/21 11:32:17;;;;;;;7.93;3.13;;;14.40;94.60;;;;;;4989885;28;20100;-62
2022/04/21 11:35:06;;;;;;;6.55;2.60;;;14.30;95.30;;;;;;4988408;28;20034;-62
2022/04/21 11:37:55;;;;;;;10.35;2.90;;;13.60;96.60;;;;;;4983877;28;20190;-62
2022/04/21 11:40:26;;;;;;;7.68;2.72;;;14.10;96.40;;;;;;4986660;28;20026;-62
2022/04/21 11:42:53;;;;;;;7.82;2.67;;;15.10;95.50;;;;;;4984458;28;20041;-63
2022/04/21 11:45:26;;;;;;;8.65;3.08;;;15.00;95.90;;;;;;4989437;28;20076;-62
2022/04/21 11:47:52;;;;;;;6.93;2.67;;;15.20;95.70;;;;;;4986520;28;20031;-63
2022/04/21 11:50:26;;;;;;;7.63;3.05;;;15.20;95.60;;;;;;4987938;28;20028;-63
2022/04/21 11:52:53;;;;;;;8.23;2.80;;;15.20;94.90;;;;;;4989170;28;20126;-62
2022/04/21 11:55:20;;;;;;;6.10;2.08;;;15.60;94.90;;;;;;4989592;28;20022;-63
2022/04/21 11:57:46;;;;;;;9.23;2.40;;;17.00;94.60;;;;;;4987128;28;20075;-63
2022/04/21 12:00:15;;;;;;;7.97;2.70;;;16.90;92.90;;;;;;4988294;28;20433;-63
2022/04/21 12:08:12;;;;;;;7.32;2.67;;;16.00;94.90;;;;;;4989219;28;20452;-63
2022/04/21 12:10:38;;;;;;;8.98;3.17;;;16.40;94.70;;;;;;4987758;28;20026;-63
2022/04/21 12:13:04;;;;;;;6.25;2.28;;;16.20;94.30;;;;;;4984204;28;20033;-63
2022/04/21 12:15:31;;;;;;;6.70;2.15;;;16.60;94.30;;;;;;4989411;28;20308;-63
2022/04/21 12:18:02;;;;;;;7.30;2.33;;;17.70;93.60;;;;;;5003913;28;20061;-63
2022/04/21 12:20:28;;;;;;;9.10;2.40;;;16.80;93.10;;;;;;4988589;28;20083;-62
2022/04/21 12:22:57;;;;;;;9.48;2.92;;;16.90;93.50;;;;;;4988460;28;20030;-63
2022/04/21 12:25:30;;;;;;;9.18;2.90;;;16.30;93.70;;;;;;4987413;28;20018;-63
2022/04/21 12:28:04;;;;;;;8.45;2.53;;;15.60;95.00;;;;;;4983840;28;20041;-66
2022/04/21 12:30:31;;;;;;;8.90;3.17;;;15.70;94.40;;;;;;4985453;28;20136;-63
2022/04/21 12:32:57;;;;;;;6.80;2.03;;;16.60;93.80;;;;;;4985381;28;20085;-63
2022/04/21 12:35:45;;;;;;;7.53;2.85;;;16.40;94.20;;;;;;4985943;28;20533;-63
2022/04/21 12:40:59;;;;;;;8.32;2.40;;;17.40;93.30;;;;;;4987154;28;20501;-63
2022/04/21 12:43:29;;;;;;;7.15;2.63;;;17.00;93.70;;;;;;4985247;28;20030;-63
2022/04/21 12:45:57;;;;;;;7.60;2.63;;;17.00;93.20;;;;;;4991198;28;20038;-63
2022/04/21 12:48:27;;;;;;;6.32;1.85;;;17.20;92.10;;;;;;4984346;28;20038;-63
2022/04/21 12:50:54;;;;;;;7.60;2.53;;;17.90;93.40;;;;;;4988726;28;20041;-63
2022/04/21 12:53:30;;;;;;;8.52;2.58;;;19.70;90.70;;;;;;4987959;28;20040;-63
2022/04/21 12:56:14;;;;;;;6.50;2.17;;;20.90;88.20;;;;;;4986769;28;20034;-63
2022/04/21 12:58:44;;;;;;;8.52;2.72;;;21.10;85.90;;;;;;4984058;28;20018;-64
2022/04/21 13:01:10;;;;;;;6.85;2.53;;;21.10;84.60;;;;;;4988671;28;20342;-63
2022/04/21 13:03:38;;;;;;;9.18;2.20;;;19.80;88.10;;;;;;4989161;28;20651;-63
2022/04/21 13:06:04;;;;;;;7.25;2.45;;;21.40;85.80;;;;;;4988570;28;20061;-63
2022/04/21 13:08:29;;;;;;;7.55;2.70;;;20.40;84.00;;;;;;4988589;28;20026;-63
2022/04/21 13:10:56;;;;;;;8.82;3.10;;;19.00;86.90;;;;;;4984885;28;20026;-63
2022/04/21 13:13:26;;;;;;;7.97;2.80;;;18.60;88.40;;;;;;4986095;28;20034;-63
2022/04/21 13:15:52;;;;;;;7.82;3.08;;;18.40;90.40;;;;;;4986176;28;20036;-63
2022/04/21 13:18:17;;;;;;;8.57;3.13;;;18.90;88.20;;;;;;4987180;28;20398;-63
2022/04/21 13:23:29;;;;;;;7.97;3.20;;;19.70;87.10;;;;;;4989181;28;20116;-63
2022/04/21 13:25:55;;;;;;;7.47;2.85;;;18.90;86.50;;;;;;4987938;28;20061;-63
2022/04/21 13:28:21;;;;;;;7.65;3.08;;;19.20;88.10;;;;;;4982904;28;20105;-63
2022/04/21 13:33:21;;;;;;;8.48;2.40;;;19.80;86.10;;;;;;4984167;28;20050;-63
2022/04/21 13:33:33;;;;;;;8.13;2.83;;;20.20;86.60;;;;;;4987602;28;20038;-63
2022/04/21 13:35:59;;;;;;;8.88;2.90;;;21.70;83.50;;;;;;5002912;28;20389;-63
2022/04/21 13:38:24;;;;;;;7.18;2.47;;;18.60;86.40;;;;;;4986144;28;20124;-63
2022/04/21 13:40:50;;;;;;;7.97;2.45;;;19.30;89.00;;;;;;4986934;28;20117;-63
2022/04/21 13:43:16;;;;;;;7.15;2.78;;;21.50;83.30;;;;;;4985462;28;20478;-63
2022/04/21 13:45:41;;;;;;;6.55;1.77;;;22.60;80.20;;;;;;4983947;28;20089;-63
2022/04/21 13:48:09;;;;;;;7.80;2.75;;;22.50;81.10;;;;;;4985525;28;20457;-63
2022/04/21 13:50:35;;;;;;;7.68;2.63;;;21.40;82.00;;;;;;4987168;28;20368;-63
2022/04/21 13:53:01;;;;;;;9.40;2.47;;;21.10;81.90;;;;;;4987805;28;20033;-63
2022/04/21 13:55:31;;;;;;;9.35;2.88;;;20.40;84.80;;;;;;4986064;28;20403;-63
2022/04/21 13:57:57;;;;;;;6.15;2.45;;;20.60;83.60;;;;;;4981137;28;20026;-63